createdAt,value
2019-01-27T00:00:07.197Z,973.51
2019-01-27T00:01:07.327Z,973.45
2019-01-27T00:02:07.506Z,973.45
2019-01-27T00:03:07.669Z,973.38
2019-01-27T00:04:07.833Z,973.33
2019-01-27T00:05:08.003Z,973.37
2019-01-27T00:06:08.173Z,973.30
2019-01-27T00:07:08.366Z,973.23
2019-01-27T00:08:13.421Z,973.28
2019-01-27T00:09:08.696Z,973.20
2019-01-27T00:10:08.849Z,973.16
2019-01-27T00:11:09.020Z,973.13
2019-01-27T00:12:09.204Z,973.12
2019-01-27T00:13:09.366Z,973.12
2019-01-27T00:14:09.538Z,973.09
2019-01-27T00:15:10.383Z,973.10
2019-01-27T00:16:09.885Z,973.02
2019-01-27T00:17:10.059Z,973.05
2019-01-27T00:18:10.224Z,973.07
2019-01-27T00:19:10.398Z,973.04
2019-01-27T00:20:10.557Z,973.08
2019-01-27T00:21:10.720Z,973.00
2019-01-27T00:22:10.921Z,972.92
2019-01-27T00:23:11.080Z,972.85
2019-01-27T00:24:11.258Z,972.81
2019-01-27T00:25:11.426Z,972.87
2019-01-27T00:26:11.598Z,972.85
2019-01-27T00:27:11.771Z,972.82
2019-01-27T00:28:11.944Z,972.83
2019-01-27T00:29:12.115Z,972.87
2019-01-27T00:30:12.339Z,972.90
2019-01-27T00:31:12.455Z,972.84
2019-01-27T00:32:12.634Z,972.83
2019-01-27T00:33:12.801Z,972.77
2019-01-27T00:34:12.965Z,972.70
2019-01-27T00:35:13.161Z,972.72
2019-01-27T00:36:13.333Z,972.70
2019-01-27T00:37:13.503Z,972.70
2019-01-27T00:38:13.676Z,972.61
2019-01-27T00:39:13.856Z,972.62
2019-01-27T00:40:14.020Z,972.59
2019-01-27T00:41:14.206Z,972.54
2019-01-27T00:42:14.361Z,972.53
2019-01-27T00:43:14.535Z,972.53
2019-01-27T00:44:14.704Z,972.55
2019-01-27T00:45:14.880Z,972.50
2019-01-27T00:46:15.054Z,972.49
2019-01-27T00:47:15.216Z,972.50
2019-01-27T00:48:15.394Z,972.46
2019-01-27T00:49:15.559Z,972.42
2019-01-27T00:50:15.736Z,972.36
2019-01-27T00:51:15.901Z,972.36
2019-01-27T00:52:16.069Z,972.35
2019-01-27T00:53:16.257Z,972.40
2019-01-27T00:54:16.410Z,972.34
2019-01-27T00:55:16.591Z,972.29
2019-01-27T00:56:16.764Z,972.29
2019-01-27T00:57:16.931Z,972.27
2019-01-27T00:58:17.104Z,972.27
2019-01-27T00:59:17.270Z,972.25
2019-01-27T01:00:17.442Z,972.21
2019-01-27T01:01:17.611Z,972.20
2019-01-27T01:02:17.775Z,972.16
2019-01-27T01:03:17.969Z,972.11
2019-01-27T01:04:18.107Z,972.09
2019-01-27T01:05:18.279Z,972.07
2019-01-27T01:06:18.450Z,972.09
2019-01-27T01:07:18.620Z,972.05
2019-01-27T01:08:18.791Z,972.03
2019-01-27T01:09:18.967Z,972.04
2019-01-27T01:10:19.138Z,971.97
2019-01-27T01:11:19.301Z,971.93
2019-01-27T01:12:19.472Z,971.92
2019-01-27T01:13:19.643Z,971.94
2019-01-27T01:14:19.818Z,971.89
2019-01-27T01:15:19.988Z,971.89
2019-01-27T01:16:20.158Z,971.85
2019-01-27T01:17:20.324Z,971.84
2019-01-27T01:18:20.497Z,971.77
2019-01-27T01:19:20.678Z,971.73
2019-01-27T01:20:20.835Z,971.71
2019-01-27T01:21:21.009Z,971.65
2019-01-27T01:22:21.182Z,971.65
2019-01-27T01:23:21.349Z,971.62
2019-01-27T01:24:21.532Z,971.67
2019-01-27T01:25:21.700Z,971.62
2019-01-27T01:26:21.870Z,971.64
2019-01-27T01:27:22.038Z,971.65
2019-01-27T01:28:22.211Z,971.78
2019-01-27T01:29:22.381Z,971.70
2019-01-27T01:30:22.556Z,971.69
2019-01-27T01:31:22.730Z,971.71
2019-01-27T01:32:22.907Z,971.61
2019-01-27T01:33:23.076Z,971.61
2019-01-27T01:34:23.259Z,971.59
2019-01-27T01:35:23.419Z,971.57
2019-01-27T01:36:23.596Z,971.59
2019-01-27T01:37:23.775Z,971.52
2019-01-27T01:38:23.941Z,971.55
2019-01-27T01:39:24.107Z,971.49
2019-01-27T01:40:24.278Z,971.49
2019-01-27T01:41:24.456Z,971.46
2019-01-27T01:42:24.620Z,971.45
2019-01-27T01:43:24.787Z,971.41
2019-01-27T01:44:24.963Z,971.35
2019-01-27T01:45:25.128Z,971.30
2019-01-27T01:46:25.302Z,971.32
2019-01-27T01:47:25.472Z,971.28
2019-01-27T01:48:25.641Z,971.19
2019-01-27T01:49:25.812Z,971.24
2019-01-27T01:50:25.981Z,971.21
2019-01-27T01:51:26.152Z,971.17
2019-01-27T01:52:26.344Z,971.21
2019-01-27T01:53:26.523Z,971.16
2019-01-27T01:54:26.685Z,971.13
2019-01-27T01:55:28.505Z,971.12
2019-01-27T01:56:27.062Z,971.11
2019-01-27T01:57:27.214Z,971.05
2019-01-27T01:58:27.386Z,971.06
2019-01-27T01:59:27.558Z,971.03
2019-01-27T02:00:27.730Z,970.95
2019-01-27T02:01:27.901Z,970.94
2019-01-27T02:02:28.078Z,970.92
2019-01-27T02:03:28.246Z,970.92
2019-01-27T02:04:28.417Z,970.94
2019-01-27T02:05:28.594Z,970.86
2019-01-27T02:06:28.759Z,970.90
2019-01-27T02:07:28.931Z,970.83
2019-01-27T02:08:29.100Z,970.88
2019-01-27T02:09:29.277Z,970.82
2019-01-27T02:10:29.461Z,970.84
2019-01-27T02:11:29.615Z,970.77
2019-01-27T02:12:29.786Z,970.77
2019-01-27T02:13:29.958Z,970.74
2019-01-27T02:14:30.133Z,970.74
2019-01-27T02:15:30.302Z,970.69
2019-01-27T02:16:30.476Z,970.68
2019-01-27T02:17:30.644Z,970.62
2019-01-27T02:18:30.816Z,970.62
2019-01-27T02:19:30.990Z,970.60
2019-01-27T02:20:31.162Z,970.58
2019-01-27T02:21:31.350Z,970.52
2019-01-27T02:22:31.502Z,970.47
2019-01-27T02:23:31.673Z,970.49
2019-01-27T02:24:31.865Z,970.43
2019-01-27T02:25:32.014Z,970.46
2019-01-27T02:26:32.185Z,970.41
2019-01-27T02:27:32.367Z,970.43
2019-01-27T02:28:32.538Z,970.40
2019-01-27T02:29:32.708Z,970.35
2019-01-27T02:30:32.872Z,970.27
2019-01-27T02:31:33.043Z,970.26
2019-01-27T02:32:33.219Z,970.25
2019-01-27T02:33:33.388Z,970.23
2019-01-27T02:34:33.556Z,970.19
2019-01-27T02:35:33.735Z,970.09
2019-01-27T02:36:33.913Z,970.14
2019-01-27T02:37:34.075Z,970.15
2019-01-27T02:38:34.249Z,970.17
2019-01-27T02:39:34.420Z,970.14
2019-01-27T02:40:34.589Z,970.15
2019-01-27T02:41:34.771Z,970.15
2019-01-27T02:42:34.933Z,970.12
2019-01-27T02:43:35.104Z,970.09
2019-01-27T02:44:35.266Z,970.10
2019-01-27T02:45:35.446Z,970.05
2019-01-27T02:46:35.615Z,970.01
2019-01-27T02:47:35.786Z,970.01
2019-01-27T02:48:35.959Z,970.01
2019-01-27T02:49:36.126Z,969.93
2019-01-27T02:50:36.305Z,969.96
2019-01-27T02:51:36.476Z,970.00
2019-01-27T02:52:36.649Z,969.91
2019-01-27T02:53:36.819Z,969.87
2019-01-27T02:54:36.990Z,969.93
2019-01-27T02:55:37.165Z,969.92
2019-01-27T02:56:37.335Z,969.80
2019-01-27T02:57:37.518Z,969.81
2019-01-27T02:58:37.683Z,969.81
2019-01-27T02:59:37.845Z,969.75
2019-01-27T03:00:38.021Z,969.76
2019-01-27T03:01:38.186Z,969.79
2019-01-27T03:02:38.370Z,969.73
2019-01-27T03:03:38.538Z,969.75
2019-01-27T03:04:38.710Z,969.69
2019-01-27T03:05:38.872Z,969.70
2019-01-27T03:06:39.045Z,969.69
2019-01-27T03:07:39.213Z,969.61
2019-01-27T03:08:39.393Z,969.63
2019-01-27T03:09:39.563Z,969.61
2019-01-27T03:10:39.735Z,969.59
2019-01-27T03:11:39.915Z,969.55
2019-01-27T03:12:40.075Z,969.50
2019-01-27T03:13:40.246Z,969.45
2019-01-27T03:14:40.415Z,969.46
2019-01-27T03:15:40.588Z,969.44
2019-01-27T03:16:40.770Z,969.45
2019-01-27T03:17:40.939Z,969.43
2019-01-27T03:18:41.108Z,969.38
2019-01-27T03:19:41.288Z,969.37
2019-01-27T03:20:41.463Z,969.41
2019-01-27T03:21:41.620Z,969.41
2019-01-27T03:22:41.794Z,969.36
2019-01-27T03:23:41.966Z,969.27
2019-01-27T03:24:42.139Z,969.31
2019-01-27T03:25:42.306Z,969.20
2019-01-27T03:26:42.483Z,969.19
2019-01-27T03:27:42.653Z,969.16
2019-01-27T03:28:42.830Z,969.12
2019-01-27T03:29:43.002Z,969.05
2019-01-27T03:30:43.175Z,969.02
2019-01-27T03:31:43.355Z,968.96
2019-01-27T03:32:43.523Z,969.01
2019-01-27T03:33:43.689Z,969.13
2019-01-27T03:34:43.865Z,969.06
2019-01-27T03:35:44.041Z,969.03
2019-01-27T03:36:44.215Z,968.97
2019-01-27T03:37:44.390Z,968.93
2019-01-27T03:38:44.559Z,968.91
2019-01-27T03:39:44.719Z,968.94
2019-01-27T03:40:44.893Z,968.95
2019-01-27T03:41:45.069Z,968.87
2019-01-27T03:42:45.236Z,968.90
2019-01-27T03:43:45.411Z,968.83
2019-01-27T03:44:45.586Z,968.85
2019-01-27T03:45:45.767Z,968.85
2019-01-27T03:46:45.930Z,968.80
2019-01-27T03:47:46.108Z,968.80
2019-01-27T03:48:46.272Z,968.72
2019-01-27T03:49:46.447Z,968.69
2019-01-27T03:50:46.618Z,968.73
2019-01-27T03:51:46.790Z,968.69
2019-01-27T03:52:46.946Z,968.66
2019-01-27T03:53:47.117Z,968.68
2019-01-27T03:54:47.275Z,968.65
2019-01-27T03:55:47.443Z,968.51
2019-01-27T03:56:47.622Z,968.56
2019-01-27T03:57:47.795Z,968.52
2019-01-27T03:58:47.960Z,968.53
2019-01-27T03:59:48.134Z,968.46
2019-01-27T04:00:48.304Z,968.47
2019-01-27T04:01:48.478Z,968.42
2019-01-27T04:02:48.651Z,968.40
2019-01-27T04:03:48.831Z,968.42
2019-01-27T04:04:48.995Z,968.39
2019-01-27T04:05:49.161Z,968.36
2019-01-27T04:06:49.338Z,968.33
2019-01-27T04:07:49.509Z,968.37
2019-01-27T04:08:49.680Z,968.32
2019-01-27T04:09:49.862Z,968.32
2019-01-27T04:10:50.031Z,968.32
2019-01-27T04:11:50.205Z,968.25
2019-01-27T04:12:50.374Z,968.20
2019-01-27T04:13:50.565Z,968.21
2019-01-27T04:14:50.720Z,968.25
2019-01-27T04:15:50.891Z,968.14
2019-01-27T04:16:51.065Z,968.18
2019-01-27T04:17:51.238Z,968.11
2019-01-27T04:18:51.405Z,968.15
2019-01-27T04:19:51.572Z,968.10
2019-01-27T04:20:51.746Z,968.08
2019-01-27T04:21:51.926Z,968.11
2019-01-27T04:22:52.099Z,968.10
2019-01-27T04:23:52.269Z,968.09
2019-01-27T04:24:52.446Z,968.11
2019-01-27T04:25:52.613Z,968.07
2019-01-27T04:26:52.784Z,968.07
2019-01-27T04:27:52.962Z,968.03
2019-01-27T04:28:53.214Z,968.01
2019-01-27T04:29:53.289Z,967.99
2019-01-27T04:30:53.476Z,968.01
2019-01-27T04:31:53.641Z,967.89
2019-01-27T04:32:53.816Z,967.92
2019-01-27T04:33:53.975Z,967.87
2019-01-27T04:34:54.146Z,967.91
2019-01-27T04:35:54.318Z,967.87
2019-01-27T04:36:54.489Z,967.83
2019-01-27T04:37:54.667Z,967.80
2019-01-27T04:38:54.845Z,967.79
2019-01-27T04:39:55.013Z,967.76
2019-01-27T04:40:55.180Z,967.78
2019-01-27T04:41:55.353Z,967.76
2019-01-27T04:42:55.528Z,967.79
2019-01-27T04:43:56.539Z,967.73
2019-01-27T04:44:55.869Z,967.69
2019-01-27T04:45:56.043Z,967.73
2019-01-27T04:46:56.215Z,967.70
2019-01-27T04:47:56.387Z,967.67
2019-01-27T04:48:56.564Z,967.69
2019-01-27T04:49:56.741Z,967.62
2019-01-27T04:50:56.904Z,967.65
2019-01-27T04:51:57.077Z,967.60
2019-01-27T04:52:57.336Z,967.60
2019-01-27T04:53:57.422Z,967.56
2019-01-27T04:54:57.585Z,967.59
2019-01-27T04:55:57.760Z,967.58
2019-01-27T04:56:57.930Z,967.54
2019-01-27T04:57:58.102Z,967.56
2019-01-27T04:58:58.272Z,967.60
2019-01-27T04:59:58.442Z,967.55
2019-01-27T05:00:58.615Z,967.53
2019-01-27T05:01:58.788Z,967.50
2019-01-27T05:02:58.964Z,967.45
2019-01-27T05:03:59.133Z,967.46
2019-01-27T05:04:59.309Z,967.45
2019-01-27T05:05:59.479Z,967.45
2019-01-27T05:06:59.656Z,967.40
2019-01-27T05:07:59.816Z,967.38
2019-01-27T05:08:59.987Z,967.40
2019-01-27T05:10:00.417Z,967.29
2019-01-27T05:11:00.331Z,967.28
2019-01-27T05:12:00.501Z,967.33
2019-01-27T05:13:00.673Z,967.32
2019-01-27T05:14:00.850Z,967.32
2019-01-27T05:15:01.005Z,967.32
2019-01-27T05:16:01.179Z,967.31
2019-01-27T05:17:01.352Z,967.31
2019-01-27T05:18:01.524Z,967.31
2019-01-27T05:19:01.694Z,967.30
2019-01-27T05:20:01.870Z,967.33
2019-01-27T05:21:02.041Z,967.32
2019-01-27T05:22:02.213Z,967.29
2019-01-27T05:23:02.402Z,967.26
2019-01-27T05:24:02.552Z,967.26
2019-01-27T05:25:02.725Z,967.24
2019-01-27T05:26:02.896Z,967.29
2019-01-27T05:27:03.076Z,967.27
2019-01-27T05:28:03.230Z,967.27
2019-01-27T05:29:03.411Z,967.20
2019-01-27T05:30:03.575Z,967.26
2019-01-27T05:31:03.748Z,967.26
2019-01-27T05:32:03.920Z,967.24
2019-01-27T05:33:04.834Z,967.22
2019-01-27T05:34:04.258Z,967.18
2019-01-27T05:35:04.445Z,967.15
2019-01-27T05:36:04.610Z,967.17
2019-01-27T05:37:04.774Z,967.17
2019-01-27T05:38:04.946Z,967.13
2019-01-27T05:39:05.115Z,967.12
2019-01-27T05:40:05.286Z,967.10
2019-01-27T05:41:05.450Z,967.03
2019-01-27T05:42:05.642Z,967.03
2019-01-27T05:43:05.794Z,967.05
2019-01-27T05:44:05.970Z,967.01
2019-01-27T05:45:06.140Z,966.99
2019-01-27T05:46:06.764Z,967.01
2019-01-27T05:47:06.485Z,966.97
2019-01-27T05:48:06.663Z,966.94
2019-01-27T05:49:06.829Z,966.94
2019-01-27T05:50:06.992Z,966.92
2019-01-27T05:51:07.162Z,966.87
2019-01-27T05:52:07.331Z,966.90
2019-01-27T05:53:07.497Z,966.90
2019-01-27T05:54:07.661Z,966.83
2019-01-27T05:55:07.839Z,966.82
2019-01-27T05:56:08.018Z,966.92
2019-01-27T05:57:08.193Z,966.80
2019-01-27T05:58:08.362Z,966.88
2019-01-27T05:59:08.532Z,966.81
2019-01-27T06:00:08.705Z,966.80
2019-01-27T06:01:08.878Z,966.77
2019-01-27T06:02:09.039Z,966.80
2019-01-27T06:03:09.209Z,966.80
2019-01-27T06:04:09.384Z,966.79
2019-01-27T06:05:09.555Z,966.75
2019-01-27T06:06:09.725Z,966.73
2019-01-27T06:07:09.896Z,966.73
2019-01-27T06:08:10.066Z,966.74
2019-01-27T06:09:10.254Z,966.78
2019-01-27T06:10:10.412Z,966.73
2019-01-27T06:11:10.587Z,966.65
2019-01-27T06:12:10.762Z,966.65
2019-01-27T06:13:10.930Z,966.66
2019-01-27T06:14:11.102Z,966.67
2019-01-27T06:15:11.271Z,966.68
2019-01-27T06:16:11.443Z,966.70
2019-01-27T06:17:11.624Z,966.71
2019-01-27T06:18:11.809Z,966.66
2019-01-27T06:19:11.958Z,966.62
2019-01-27T06:20:12.123Z,966.61
2019-01-27T06:21:12.299Z,966.60
2019-01-27T06:22:12.466Z,966.58
2019-01-27T06:23:12.631Z,966.56
2019-01-27T06:24:12.801Z,966.48
2019-01-27T06:25:12.979Z,966.45
2019-01-27T06:26:13.151Z,966.38
2019-01-27T06:27:13.324Z,966.35
2019-01-27T06:28:13.518Z,966.34
2019-01-27T06:29:13.661Z,966.32
2019-01-27T06:30:13.831Z,966.30
2019-01-27T06:31:13.994Z,966.28
2019-01-27T06:32:14.168Z,966.27
2019-01-27T06:33:14.384Z,966.29
2019-01-27T06:34:14.519Z,966.28
2019-01-27T06:35:14.680Z,966.27
2019-01-27T06:36:14.858Z,966.23
2019-01-27T06:37:15.027Z,966.27
2019-01-27T06:38:15.210Z,966.21
2019-01-27T06:39:15.368Z,966.26
2019-01-27T06:40:15.545Z,966.19
2019-01-27T06:41:15.714Z,966.21
2019-01-27T06:42:15.885Z,966.15
2019-01-27T06:43:16.062Z,966.13
2019-01-27T06:44:16.225Z,966.15
2019-01-27T06:45:16.390Z,966.10
2019-01-27T06:47:16.737Z,966.01
2019-01-27T06:48:16.913Z,966.06
2019-01-27T06:49:17.074Z,966.09
2019-01-27T06:50:17.246Z,966.09
2019-01-27T06:51:17.419Z,966.16
2019-01-27T06:52:17.591Z,966.15
2019-01-27T06:53:17.767Z,966.12
2019-01-27T06:54:17.934Z,966.15
2019-01-27T06:55:18.110Z,966.11
2019-01-27T06:56:18.278Z,966.10
2019-01-27T06:57:18.450Z,966.07
2019-01-27T06:58:18.623Z,966.12
2019-01-27T06:59:18.796Z,966.11
2019-01-27T07:00:18.971Z,966.11
2019-01-27T07:01:19.139Z,966.09
2019-01-27T07:02:19.311Z,966.04
2019-01-27T07:03:19.487Z,966.05
2019-01-27T07:04:19.658Z,966.00
2019-01-27T07:05:19.820Z,965.99
2019-01-27T07:06:20.000Z,965.90
2019-01-27T07:07:20.171Z,965.94
2019-01-27T07:08:20.345Z,965.88
2019-01-27T07:09:20.518Z,965.89
2019-01-27T07:10:20.689Z,965.94
2019-01-27T07:11:20.862Z,965.89
2019-01-27T07:12:21.043Z,965.89
2019-01-27T07:13:21.223Z,965.91
2019-01-27T07:14:21.369Z,965.89
2019-01-27T07:15:21.538Z,965.90
2019-01-27T07:16:21.715Z,965.85
2019-01-27T07:17:21.881Z,965.84
2019-01-27T07:18:22.063Z,965.86
2019-01-27T07:19:22.232Z,965.85
2019-01-27T07:20:22.395Z,965.80
2019-01-27T07:21:22.568Z,965.82
2019-01-27T07:22:22.741Z,965.77
2019-01-27T07:23:22.909Z,965.73
2019-01-27T07:24:23.079Z,965.75
2019-01-27T07:25:23.250Z,965.70
2019-01-27T07:26:23.422Z,965.73
2019-01-27T07:27:23.593Z,965.61
2019-01-27T07:28:23.763Z,965.60
2019-01-27T07:29:23.930Z,965.62
2019-01-27T07:30:24.111Z,965.63
2019-01-27T07:31:24.273Z,965.59
2019-01-27T07:32:24.444Z,965.59
2019-01-27T07:33:24.610Z,965.55
2019-01-27T07:34:24.786Z,965.56
2019-01-27T07:35:24.960Z,965.58
2019-01-27T07:36:25.132Z,965.53
2019-01-27T07:37:25.303Z,965.52
2019-01-27T07:38:25.475Z,965.42
2019-01-27T07:39:25.648Z,965.52
2019-01-27T07:40:25.816Z,965.47
2019-01-27T07:41:25.992Z,965.45
2019-01-27T07:42:26.157Z,965.45
2019-01-27T07:43:26.329Z,965.46
2019-01-27T07:44:26.499Z,965.44
2019-01-27T07:45:26.670Z,965.44
2019-01-27T07:46:26.843Z,965.44
2019-01-27T07:47:27.013Z,965.44
2019-01-27T07:48:27.183Z,965.51
2019-01-27T07:49:27.364Z,965.49
2019-01-27T07:50:27.533Z,965.46
2019-01-27T07:51:27.700Z,965.45
2019-01-27T07:52:27.870Z,965.44
2019-01-27T07:53:28.033Z,965.46
2019-01-27T07:54:28.216Z,965.43
2019-01-27T07:55:28.397Z,965.39
2019-01-27T07:56:28.555Z,965.31
2019-01-27T07:57:28.722Z,965.38
2019-01-27T07:58:28.892Z,965.30
2019-01-27T07:59:29.066Z,965.29
2019-01-27T08:00:29.237Z,965.25
2019-01-27T08:01:29.414Z,965.26
2019-01-27T08:02:29.588Z,965.26
2019-01-27T08:03:29.770Z,965.21
2019-01-27T08:04:29.924Z,965.26
2019-01-27T08:05:30.104Z,965.25
2019-01-27T08:06:30.283Z,965.28
2019-01-27T08:07:30.454Z,965.22
2019-01-27T08:08:30.630Z,965.26
2019-01-27T08:09:30.808Z,965.19
2019-01-27T08:10:30.973Z,965.25
2019-01-27T08:11:31.151Z,965.21
2019-01-27T08:12:31.317Z,965.18
2019-01-27T08:13:31.489Z,965.20
2019-01-27T08:14:31.670Z,965.19
2019-01-27T08:15:31.831Z,965.22
2019-01-27T08:16:31.994Z,965.19
2019-01-27T08:17:32.192Z,965.23
2019-01-27T08:18:32.342Z,965.22
2019-01-27T08:19:32.507Z,965.29
2019-01-27T08:20:32.681Z,965.30
2019-01-27T08:21:32.848Z,965.26
2019-01-27T08:22:33.045Z,965.29
2019-01-27T08:23:33.188Z,965.26
2019-01-27T08:24:33.361Z,965.26
2019-01-27T08:25:33.536Z,965.22
2019-01-27T08:26:33.718Z,965.24
2019-01-27T08:27:33.871Z,965.16
2019-01-27T08:28:34.874Z,965.15
2019-01-27T08:29:34.187Z,965.13
2019-01-27T08:30:34.365Z,965.21
2019-01-27T08:31:34.539Z,965.27
2019-01-27T08:32:34.704Z,965.19
2019-01-27T08:33:34.877Z,965.20
2019-01-27T08:34:35.047Z,965.26
2019-01-27T08:35:35.214Z,965.26
2019-01-27T08:36:35.388Z,965.19
2019-01-27T08:37:35.559Z,965.17
2019-01-27T08:38:35.725Z,965.13
2019-01-27T08:39:35.912Z,965.12
2019-01-27T08:40:36.071Z,965.13
2019-01-27T08:41:36.253Z,965.10
2019-01-27T08:42:36.414Z,965.12
2019-01-27T08:43:36.585Z,965.13
2019-01-27T08:44:36.781Z,965.10
2019-01-27T08:45:36.931Z,965.16
2019-01-27T08:46:37.099Z,965.14
2019-01-27T08:47:37.271Z,965.15
2019-01-27T08:48:37.447Z,965.12
2019-01-27T08:49:37.620Z,965.08
2019-01-27T08:50:37.791Z,965.18
2019-01-27T08:51:37.963Z,965.05
2019-01-27T08:52:38.142Z,965.16
2019-01-27T08:53:38.318Z,965.11
2019-01-27T08:54:38.503Z,965.16
2019-01-27T08:55:40.261Z,965.14
2019-01-27T08:56:38.836Z,965.13
2019-01-27T08:57:39.010Z,965.14
2019-01-27T08:58:39.189Z,965.12
2019-01-27T08:59:39.349Z,965.05
2019-01-27T09:00:39.528Z,965.03
2019-01-27T09:01:39.716Z,964.98
2019-01-27T09:02:39.894Z,965.00
2019-01-27T09:03:40.050Z,964.95
2019-01-27T09:04:40.222Z,964.93
2019-01-27T09:05:40.391Z,964.95
2019-01-27T09:06:40.575Z,964.94
2019-01-27T09:07:40.778Z,964.85
2019-01-27T09:08:40.909Z,964.88
2019-01-27T09:09:41.079Z,964.81
2019-01-27T09:10:41.249Z,964.80
2019-01-27T09:11:41.425Z,964.76
2019-01-27T09:12:41.610Z,964.72
2019-01-27T09:13:41.762Z,964.76
2019-01-27T09:14:41.973Z,964.75
2019-01-27T09:15:42.109Z,964.70
2019-01-27T09:16:42.291Z,964.76
2019-01-27T09:17:42.443Z,964.69
2019-01-27T09:18:42.630Z,964.74
2019-01-27T09:19:42.793Z,964.73
2019-01-27T09:20:42.961Z,964.74
2019-01-27T09:21:43.135Z,964.75
2019-01-27T09:22:43.299Z,964.70
2019-01-27T09:23:43.473Z,964.79
2019-01-27T09:24:43.647Z,964.73
2019-01-27T09:25:43.827Z,964.69
2019-01-27T09:26:43.993Z,964.67
2019-01-27T09:27:44.175Z,964.61
2019-01-27T09:28:44.331Z,964.63
2019-01-27T09:29:44.511Z,964.56
2019-01-27T09:30:44.687Z,964.59
2019-01-27T09:31:44.846Z,964.56
2019-01-27T09:32:45.017Z,964.64
2019-01-27T09:33:45.199Z,964.62
2019-01-27T09:34:45.374Z,964.61
2019-01-27T09:35:45.549Z,964.57
2019-01-27T09:36:45.713Z,964.61
2019-01-27T09:37:45.884Z,964.58
2019-01-27T09:38:46.059Z,964.62
2019-01-27T09:39:46.230Z,964.62
2019-01-27T09:40:46.396Z,964.58
2019-01-27T09:41:46.565Z,964.58
2019-01-27T09:42:46.723Z,964.57
2019-01-27T09:43:46.903Z,964.52
2019-01-27T09:44:47.077Z,964.54
2019-01-27T09:45:57.612Z,964.58
2019-01-27T09:46:47.424Z,964.55
2019-01-27T09:47:47.605Z,964.48
2019-01-27T09:48:47.773Z,964.45
2019-01-27T09:49:47.941Z,964.51
2019-01-27T09:50:48.121Z,964.47
2019-01-27T09:51:48.289Z,964.51
2019-01-27T09:52:48.446Z,964.47
2019-01-27T09:53:48.614Z,964.50
2019-01-27T09:54:48.784Z,964.45
2019-01-27T09:55:48.937Z,964.48
2019-01-27T09:56:49.109Z,964.58
2019-01-27T09:57:49.277Z,964.49
2019-01-27T09:58:49.455Z,964.50
2019-01-27T09:59:49.627Z,964.52
2019-01-27T10:00:49.781Z,964.44
2019-01-27T10:01:49.969Z,964.47
2019-01-27T10:02:51.718Z,964.49
2019-01-27T10:03:50.307Z,964.46
2019-01-27T10:04:50.481Z,964.46
2019-01-27T10:05:50.642Z,964.40
2019-01-27T10:06:50.817Z,964.40
2019-01-27T10:07:50.996Z,964.41
2019-01-27T10:08:51.159Z,964.37
2019-01-27T10:09:51.330Z,964.40
2019-01-27T10:10:51.512Z,964.32
2019-01-27T10:11:51.678Z,964.41
2019-01-27T10:12:51.855Z,964.33
2019-01-27T10:13:52.030Z,964.31
2019-01-27T10:14:52.188Z,964.33
2019-01-27T10:15:52.360Z,964.37
2019-01-27T10:16:52.543Z,964.30
2019-01-27T10:17:52.712Z,964.31
2019-01-27T10:18:52.875Z,964.28
2019-01-27T10:19:53.045Z,964.31
2019-01-27T10:20:53.213Z,964.29
2019-01-27T10:21:53.376Z,964.33
2019-01-27T10:22:53.564Z,964.32
2019-01-27T10:23:53.757Z,964.27
2019-01-27T10:24:53.897Z,964.30
2019-01-27T10:25:54.067Z,964.32
2019-01-27T10:26:54.249Z,964.29
2019-01-27T10:27:54.420Z,964.23
2019-01-27T10:28:54.587Z,964.21
2019-01-27T10:29:54.757Z,964.27
2019-01-27T10:30:54.923Z,964.19
2019-01-27T10:31:55.099Z,964.17
2019-01-27T10:32:55.268Z,964.18
2019-01-27T10:33:55.458Z,964.12
2019-01-27T10:34:55.613Z,964.13
2019-01-27T10:35:55.809Z,964.09
2019-01-27T10:36:55.958Z,964.08
2019-01-27T10:37:56.129Z,964.12
2019-01-27T10:38:56.299Z,964.05
2019-01-27T10:39:56.472Z,964.07
2019-01-27T10:40:58.256Z,964.03
2019-01-27T10:41:56.815Z,964.03
2019-01-27T10:42:56.989Z,964.05
2019-01-27T10:43:57.162Z,963.97
2019-01-27T10:44:57.344Z,964.01
2019-01-27T10:45:57.511Z,963.93
2019-01-27T10:46:57.684Z,963.95
2019-01-27T10:47:57.856Z,963.94
2019-01-27T10:48:58.039Z,963.98
2019-01-27T10:49:58.366Z,963.92
2019-01-27T10:50:58.373Z,963.92
2019-01-27T10:51:58.546Z,963.93
2019-01-27T10:52:58.726Z,963.90
2019-01-27T10:53:58.890Z,963.91
2019-01-27T10:54:59.067Z,963.87
2019-01-27T10:55:59.242Z,963.90
2019-01-27T10:56:59.420Z,963.92
2019-01-27T10:57:59.584Z,963.93
2019-01-27T10:58:59.762Z,963.89
2019-01-27T10:59:59.930Z,963.90
2019-01-27T11:01:00.104Z,963.92
2019-01-27T11:02:00.286Z,963.95
2019-01-27T11:03:00.462Z,963.82
2019-01-27T11:04:00.637Z,963.89
2019-01-27T11:05:00.859Z,963.86
2019-01-27T11:06:00.999Z,963.83
2019-01-27T11:07:01.158Z,963.82
2019-01-27T11:08:01.347Z,963.82
2019-01-27T11:09:01.502Z,963.83
2019-01-27T11:10:01.685Z,963.83
2019-01-27T11:11:01.851Z,963.76
2019-01-27T11:12:02.022Z,963.79
2019-01-27T11:13:02.201Z,963.72
2019-01-27T11:14:02.369Z,963.71
2019-01-27T11:15:02.545Z,963.69
2019-01-27T11:16:02.757Z,963.73
2019-01-27T11:17:02.897Z,963.71
2019-01-27T11:18:03.062Z,963.69
2019-01-27T11:19:03.244Z,963.69
2019-01-27T11:20:03.408Z,963.66
2019-01-27T11:21:03.577Z,963.66
2019-01-27T11:22:03.794Z,963.65
2019-01-27T11:23:03.909Z,963.67
2019-01-27T11:24:04.091Z,963.66
2019-01-27T11:25:04.271Z,963.64
2019-01-27T11:26:04.419Z,963.60
2019-01-27T11:27:04.609Z,963.57
2019-01-27T11:28:04.782Z,963.56
2019-01-27T11:29:04.961Z,963.48
2019-01-27T11:30:05.141Z,963.51
2019-01-27T11:31:05.306Z,963.45
2019-01-27T11:32:05.479Z,963.40
2019-01-27T11:33:05.652Z,963.40
2019-01-27T11:34:05.829Z,963.42
2019-01-27T11:35:06.007Z,963.40
2019-01-27T11:36:06.170Z,963.39
2019-01-27T11:37:06.344Z,963.34
2019-01-27T11:38:06.518Z,963.33
2019-01-27T11:39:06.701Z,963.31
2019-01-27T11:40:06.873Z,963.37
2019-01-27T11:41:07.047Z,963.37
2019-01-27T11:42:07.220Z,963.37
2019-01-27T11:43:07.390Z,963.38
2019-01-27T11:44:07.562Z,963.39
2019-01-27T11:45:07.741Z,963.32
2019-01-27T11:46:07.916Z,963.35
2019-01-27T11:47:08.094Z,963.31
2019-01-27T11:48:08.247Z,963.27
2019-01-27T11:49:08.415Z,963.30
2019-01-27T11:50:08.603Z,963.26
2019-01-27T11:51:08.758Z,963.24
2019-01-27T11:52:15.312Z,963.25
2019-01-27T11:53:09.102Z,963.20
2019-01-27T11:54:09.272Z,963.21
2019-01-27T11:55:09.442Z,963.22
2019-01-27T11:56:09.634Z,963.23
2019-01-27T11:57:09.790Z,963.24
2019-01-27T11:58:09.973Z,963.20
2019-01-27T11:59:10.163Z,963.28
2019-01-27T12:00:10.336Z,963.19
2019-01-27T12:01:10.510Z,963.26
2019-01-27T12:02:10.690Z,963.13
2019-01-27T12:03:10.854Z,963.17
2019-01-27T12:04:11.032Z,963.16
2019-01-27T12:05:11.190Z,963.19
2019-01-27T12:06:11.366Z,963.08
2019-01-27T12:07:11.538Z,963.07
2019-01-27T12:08:11.720Z,963.01
2019-01-27T12:09:11.885Z,963.02
2019-01-27T12:10:12.037Z,963.02
2019-01-27T12:11:12.222Z,962.99
2019-01-27T12:12:12.408Z,962.97
2019-01-27T12:13:12.557Z,962.94
2019-01-27T12:14:12.778Z,962.98
2019-01-27T12:15:12.883Z,962.99
2019-01-27T12:16:13.056Z,962.95
2019-01-27T12:17:13.234Z,963.00
2019-01-27T12:18:13.411Z,962.98
2019-01-27T12:19:13.600Z,962.98
2019-01-27T12:20:13.743Z,962.99
2019-01-27T12:21:13.917Z,963.00
2019-01-27T12:22:14.095Z,963.01
2019-01-27T12:23:14.261Z,962.95
2019-01-27T12:24:14.435Z,962.87
2019-01-27T12:25:14.628Z,962.92
2019-01-27T12:26:14.808Z,962.91
2019-01-27T12:27:14.963Z,962.91
2019-01-27T12:28:15.139Z,962.90
2019-01-27T12:29:15.311Z,962.91
2019-01-27T12:30:15.485Z,962.85
2019-01-27T12:31:15.662Z,962.85